Time;durP1;ratioP1;P1;durP2;ratioP2;P2;SDS_P1;SDS_P2;PMS_P1;PMS_P2;Temp;Humidity;BMP_temperature;BMP_pressure;BME280_temperature;BME280_humidity;BME280_pressure;Samples;Min_cycle;Max_cycle;Signal;HPM_P1;HPM_P2
2021/09/13 00:00:43;;;;;;;5.90;3.42;;;;;;;;;;4921016;29;20412;-87
2021/09/13 00:03:11;;;;;;;5.13;3.22;;;;;;;;;;4923833;29;20075;-87
2021/09/13 00:05:37;;;;;;;5.88;3.80;;;;;;;;;;4920502;29;20047;-87
2021/09/13 00:08:02;;;;;;;5.47;4.00;;;;;;;;;;4899597;29;20379;-86
2021/09/13 00:10:27;;;;;;;7.22;4.03;;;;;;;;;;4918358;29;20020;-89
2021/09/13 00:12:53;;;;;;;6.80;3.40;;;;;;;;;;4932316;29;20035;-90
2021/09/13 00:15:18;;;;;;;8.20;3.87;;;;;;;;;;4929794;29;20030;-88
2021/09/13 00:17:44;;;;;;;7.60;3.50;;;;;;;;;;4932497;29;20956;-87
2021/09/13 00:20:09;;;;;;;7.10;3.90;;;;;;;;;;4926875;29;20027;-89
2021/09/13 00:22:35;;;;;;;7.78;3.35;;;;;;;;;;4911328;29;20016;-89
2021/09/13 00:25:00;;;;;;;5.43;3.75;;;;;;;;;;4930086;29;20016;-87
2021/09/13 00:27:25;;;;;;;6.40;4.22;;;;;;;;;;4929251;29;20035;-88
2021/09/13 00:29:51;;;;;;;5.33;3.47;;;;;;;;;;4930891;29;20059;-89
2021/09/13 00:32:16;;;;;;;10.47;4.20;;;;;;;;;;4929084;29;20307;-90
2021/09/13 00:34:41;;;;;;;5.70;3.67;;;;;;;;;;4905279;29;20276;-89
2021/09/13 00:37:07;;;;;;;4.70;3.13;;;;;;;;;;4913973;29;20060;-89
2021/09/13 00:39:32;;;;;;;8.52;3.35;;;;;;;;;;4924970;29;20030;-88
2021/09/13 00:41:57;;;;;;;8.97;3.43;;;;;;;;;;4924023;29;20032;-87
2021/09/13 00:44:24;;;;;;;5.45;3.88;;;;;;;;;;4906844;29;20027;-87
2021/09/13 00:46:49;;;;;;;5.78;3.58;;;;;;;;;;4925988;29;20419;-87
2021/09/13 00:49:14;;;;;;;8.05;3.53;;;;;;;;;;4924184;29;20122;-90
2021/09/13 00:51:40;;;;;;;17.27;4.57;;;;;;;;;;4929573;29;20483;-89
2021/09/13 00:54:05;;;;;;;4.97;3.25;;;;;;;;;;4928210;29;20263;-89
2021/09/13 00:56:31;;;;;;;4.32;3.28;;;;;;;;;;4927231;29;20028;-89
2021/09/13 00:58:56;;;;;;;7.45;3.70;;;;;;;;;;4929704;29;20035;-89
2021/09/13 01:01:21;;;;;;;5.40;3.22;;;;;;;;;;4928884;29;20023;-89
2021/09/13 01:03:47;;;;;;;4.80;3.80;;;;;;;;;;4927915;29;20016;-88
2021/09/13 01:06:12;;;;;;;6.28;3.33;;;;;;;;;;4929748;29;20043;-89
2021/09/13 01:08:37;;;;;;;4.43;3.00;;;;;;;;;;4931337;29;20027;-89
2021/09/13 01:11:03;;;;;;;5.68;3.40;;;;;;;;;;4935141;29;20019;-90
2021/09/13 01:13:29;;;;;;;5.72;3.38;;;;;;;;;;4931289;29;20031;-91
2021/09/13 01:15:54;;;;;;;5.60;3.28;;;;;;;;;;4927586;29;20030;-89
2021/09/13 01:18:19;;;;;;;4.82;3.53;;;;;;;;;;4927455;29;20023;-89
2021/09/13 01:20:45;;;;;;;9.25;3.10;;;;;;;;;;4908879;29;20060;-89
2021/09/13 01:23:37;;;;;;;5.20;3.65;;;;;;;;;;4929533;29;20016;-87
2021/09/13 01:26:03;;;;;;;6.50;3.45;;;;;;;;;;4926872;29;20043;-88
2021/09/13 01:28:28;;;;;;;9.27;3.53;;;;;;;;;;4931939;29;20081;-89
2021/09/13 01:30:54;;;;;;;4.13;2.75;;;;;;;;;;4933714;29;20095;-88
2021/09/13 01:33:21;;;;;;;5.57;3.38;;;;;;;;;;4919885;29;20383;-89
2021/09/13 01:35:46;;;;;;;6.53;3.55;;;;;;;;;;4936738;29;20024;-89
2021/09/13 01:38:11;;;;;;;3.80;3.20;;;;;;;;;;4934795;29;20019;-90
2021/09/13 01:40:37;;;;;;;4.90;3.75;;;;;;;;;;4930079;29;20267;-88
2021/09/13 01:43:03;;;;;;;6.83;3.80;;;;;;;;;;4929546;29;20027;-91
2021/09/13 01:45:28;;;;;;;4.60;3.60;;;;;;;;;;4916229;29;20328;-90
2021/09/13 01:47:54;;;;;;;4.93;3.40;;;;;;;;;;4937079;29;20024;-89
2021/09/13 01:50:19;;;;;;;5.78;3.40;;;;;;;;;;4934991;29;20372;-90
2021/09/13 01:52:45;;;;;;;5.95;3.38;;;;;;;;;;4934602;29;20083;-90
2021/09/13 01:55:10;;;;;;;4.07;3.17;;;;;;;;;;4930288;29;20084;-90
2021/09/13 01:57:36;;;;;;;5.45;3.63;;;;;;;;;;4933356;29;20379;-90
2021/09/13 02:00:02;;;;;;;9.15;3.15;;;;;;;;;;4929780;29;20046;-91
2021/09/13 02:02:28;;;;;;;4.95;2.72;;;;;;;;;;4928602;29;20008;-90
2021/09/13 02:04:53;;;;;;;5.28;3.75;;;;;;;;;;4927535;29;20099;-90
2021/09/13 02:07:18;;;;;;;7.43;3.75;;;;;;;;;;4930466;29;20059;-88
2021/09/13 02:09:44;;;;;;;5.13;3.03;;;;;;;;;;4933156;29;20088;-89
2021/09/13 02:12:10;;;;;;;4.43;3.35;;;;;;;;;;4916158;29;20035;-90
2021/09/13 02:14:35;;;;;;;5.45;3.53;;;;;;;;;;4930297;29;20027;-90
2021/09/13 02:17:00;;;;;;;5.77;3.23;;;;;;;;;;4933377;29;20057;-91
2021/09/13 02:19:25;;;;;;;5.00;3.30;;;;;;;;;;4928811;29;20271;-91
2021/09/13 02:21:51;;;;;;;4.65;3.58;;;;;;;;;;4933619;29;20016;-90
2021/09/13 02:24:16;;;;;;;7.53;3.90;;;;;;;;;;4931888;29;20107;-90
2021/09/13 02:26:41;;;;;;;6.13;3.90;;;;;;;;;;4932710;29;20292;-93
2021/09/13 02:29:07;;;;;;;6.20;3.17;;;;;;;;;;4933420;29;20074;-88
2021/09/13 02:31:32;;;;;;;7.05;3.30;;;;;;;;;;4915208;29;20095;-89
2021/09/13 02:33:57;;;;;;;6.50;3.90;;;;;;;;;;4928185;29;20075;-89
2021/09/13 02:36:23;;;;;;;6.80;3.73;;;;;;;;;;4921474;29;20028;-91
2021/09/13 02:38:48;;;;;;;7.40;3.70;;;;;;;;;;4924601;29;20268;-91
2021/09/13 02:41:13;;;;;;;7.80;5.73;;;;;;;;;;4931078;29;20012;-91
2021/09/13 02:43:39;;;;;;;6.40;4.32;;;;;;;;;;4926795;29;20585;-91
2021/09/13 02:46:04;;;;;;;5.47;3.10;;;;;;;;;;4923334;29;20019;-91
2021/09/13 02:48:30;;;;;;;6.68;3.55;;;;;;;;;;4932631;29;20494;-91
2021/09/13 02:50:55;;;;;;;4.68;3.20;;;;;;;;;;4933185;29;20028;-88
2021/09/13 02:53:20;;;;;;;6.30;3.42;;;;;;;;;;4915221;29;20020;-88
2021/09/13 02:55:46;;;;;;;5.50;3.22;;;;;;;;;;4930580;29;20055;-89
2021/09/13 02:58:11;;;;;;;5.40;3.25;;;;;;;;;;4932850;29;20023;-89
2021/09/13 03:00:36;;;;;;;21.83;18.13;;;;;;;;;;4932145;29;20012;-91
2021/09/13 03:03:01;;;;;;;9.65;6.72;;;;;;;;;;4929902;29;20272;-91
2021/09/13 03:05:28;;;;;;;6.85;3.78;;;;;;;;;;4931743;29;20391;-91
2021/09/13 03:07:53;;;;;;;10.32;4.10;;;;;;;;;;4933837;29;20020;-90
2021/09/13 03:10:18;;;;;;;5.65;3.65;;;;;;;;;;4933209;29;20034;-89
2021/09/13 03:12:44;;;;;;;8.65;3.70;;;;;;;;;;4923322;29;20087;-89
2021/09/13 03:15:09;;;;;;;8.18;3.40;;;;;;;;;;4929301;29;20082;-90
2021/09/13 03:17:35;;;;;;;4.93;3.35;;;;;;;;;;4927314;29;20030;-90
2021/09/13 03:20:00;;;;;;;6.70;3.67;;;;;;;;;;4922924;29;20024;-90
2021/09/13 03:22:25;;;;;;;5.75;3.70;;;;;;;;;;4924889;29;20024;-89
2021/09/13 03:24:51;;;;;;;4.85;3.72;;;;;;;;;;4907525;29;20130;-91
2021/09/13 03:27:58;;;;;;;4.43;3.75;;;;;;;;;;4915031;29;20034;-91
2021/09/13 03:30:28;;;;;;;5.03;3.58;;;;;;;;;;4931824;29;20043;-93
2021/09/13 03:32:53;;;;;;;7.07;3.28;;;;;;;;;;4913285;29;20023;-87
2021/09/13 03:35:18;;;;;;;4.93;3.67;;;;;;;;;;4929306;29;20023;-88
2021/09/13 03:37:43;;;;;;;7.57;3.60;;;;;;;;;;4931932;29;20283;-90
2021/09/13 03:40:09;;;;;;;6.50;4.00;;;;;;;;;;4933978;29;20043;-89
2021/09/13 03:42:34;;;;;;;7.43;3.70;;;;;;;;;;4931102;29;20015;-90
2021/09/13 03:44:59;;;;;;;6.33;4.03;;;;;;;;;;4926856;29;20715;-90
2021/09/13 03:47:25;;;;;;;10.70;3.77;;;;;;;;;;4930067;29;20028;-89
2021/09/13 03:49:50;;;;;;;5.15;3.25;;;;;;;;;;4932435;29;20090;-89
2021/09/13 03:52:16;;;;;;;6.85;3.80;;;;;;;;;;4933565;29;20027;-89
2021/09/13 03:54:41;;;;;;;6.45;3.92;;;;;;;;;;4938219;29;20028;-88
2021/09/13 03:57:06;;;;;;;10.73;3.92;;;;;;;;;;4942864;29;20019;-90
2021/09/13 03:59:32;;;;;;;9.40;4.13;;;;;;;;;;4947338;28;20040;-90
2021/09/13 04:01:58;;;;;;;6.82;3.72;;;;;;;;;;4951285;28;20028;-91
2021/09/13 04:04:26;;;;;;;7.43;4.00;;;;;;;;;;4943810;28;20063;-89
2021/09/13 04:06:55;;;;;;;5.03;3.53;;;;;;;;;;4933561;29;20777;-90
2021/09/13 04:12:18;;;;;;;5.13;3.42;;;;;;;;;;4936864;29;20004;-91
2021/09/13 04:14:46;;;;;;;5.65;3.50;;;;;;;;;;4910524;29;20434;-90
2021/09/13 04:17:12;;;;;;;6.93;3.58;;;;;;;;;;4921650;29;20095;-89
2021/09/13 04:19:37;;;;;;;5.38;3.90;;;;;;;;;;4931956;29;20020;-90
2021/09/13 04:22:03;;;;;;;7.30;4.32;;;;;;;;;;4933376;29;20036;-91
2021/09/13 04:24:28;;;;;;;6.78;4.20;;;;;;;;;;4926164;29;20024;-89
2021/09/13 04:26:53;;;;;;;10.00;4.72;;;;;;;;;;4929981;29;20031;-89
2021/09/13 04:29:19;;;;;;;8.18;3.50;;;;;;;;;;4932100;29;20024;-91
2021/09/13 04:31:44;;;;;;;7.28;4.38;;;;;;;;;;4928858;29;20051;-89
2021/09/13 04:34:12;;;;;;;12.00;5.07;;;;;;;;;;4931251;29;20023;-89
2021/09/13 04:36:37;;;;;;;7.18;4.20;;;;;;;;;;4929940;29;20555;-88
2021/09/13 04:39:03;;;;;;;6.35;3.80;;;;;;;;;;4910778;29;20063;-88
2021/09/13 04:41:29;;;;;;;8.43;4.25;;;;;;;;;;4928449;29;20074;-91
2021/09/13 04:43:54;;;;;;;9.15;4.45;;;;;;;;;;4912613;29;20083;-87
2021/09/13 04:46:19;;;;;;;7.47;4.43;;;;;;;;;;4932492;29;20042;-86
2021/09/13 04:48:45;;;;;;;8.85;4.28;;;;;;;;;;4928665;29;20034;-88
2021/09/13 04:51:10;;;;;;;6.63;4.23;;;;;;;;;;4931353;29;20050;-89
2021/09/13 04:53:36;;;;;;;7.10;4.53;;;;;;;;;;4933030;29;20630;-88
2021/09/13 04:56:01;;;;;;;6.90;4.15;;;;;;;;;;4934058;29;20451;-88
2021/09/13 04:58:26;;;;;;;7.75;4.82;;;;;;;;;;4932502;29;20012;-88
2021/09/13 05:00:51;;;;;;;7.40;4.38;;;;;;;;;;4934242;29;20019;-89
2021/09/13 05:03:17;;;;;;;7.85;4.45;;;;;;;;;;4924973;29;20012;-89
2021/09/13 05:05:42;;;;;;;7.57;5.22;;;;;;;;;;4926087;29;20555;-89
2021/09/13 05:08:08;;;;;;;7.15;4.40;;;;;;;;;;4916959;29;20047;-89
2021/09/13 05:10:33;;;;;;;7.90;4.93;;;;;;;;;;4929174;29;20027;-90
2021/09/13 05:12:58;;;;;;;7.23;4.43;;;;;;;;;;4933202;29;20024;-87
2021/09/13 05:15:24;;;;;;;5.20;4.03;;;;;;;;;;4925368;29;20268;-87
2021/09/13 05:17:49;;;;;;;7.78;4.05;;;;;;;;;;4924272;29;20482;-85
2021/09/13 05:20:15;;;;;;;8.25;4.32;;;;;;;;;;4929440;29;20104;-84
2021/09/13 05:22:40;;;;;;;16.67;11.55;;;;;;;;;;4926799;29;21035;-85
2021/09/13 05:25:06;;;;;;;10.05;6.18;;;;;;;;;;4923003;29;20059;-85
2021/09/13 05:27:31;;;;;;;9.07;5.38;;;;;;;;;;4927645;29;20032;-86
2021/09/13 05:29:57;;;;;;;8.27;4.40;;;;;;;;;;4931385;29;20031;-87
2021/09/13 05:32:22;;;;;;;7.25;3.85;;;;;;;;;;4929160;29;20019;-88
2021/09/13 05:34:48;;;;;;;7.63;5.20;;;;;;;;;;4931602;29;20020;-86
2021/09/13 05:37:13;;;;;;;9.50;4.40;;;;;;;;;;4928554;29;20111;-86
2021/09/13 05:39:38;;;;;;;8.40;4.97;;;;;;;;;;4930348;29;20286;-85
2021/09/13 05:42:04;;;;;;;8.52;4.72;;;;;;;;;;4928180;29;20470;-84
2021/09/13 05:44:29;;;;;;;7.60;4.38;;;;;;;;;;4924677;29;20024;-84
2021/09/13 05:46:55;;;;;;;9.57;5.57;;;;;;;;;;4930610;29;20028;-84
2021/09/13 05:49:20;;;;;;;11.35;4.43;;;;;;;;;;4931343;29;20019;-85
2021/09/13 05:51:46;;;;;;;6.00;4.23;;;;;;;;;;4927261;29;20114;-87
2021/09/13 05:54:12;;;;;;;5.32;3.90;;;;;;;;;;4931139;29;20303;-84
2021/09/13 05:56:38;;;;;;;6.97;4.47;;;;;;;;;;4928833;29;20386;-89
2021/09/13 05:59:03;;;;;;;8.95;4.90;;;;;;;;;;4927914;29;20024;-84
2021/09/13 06:01:28;;;;;;;7.88;5.25;;;;;;;;;;4909991;29;20539;-88
2021/09/13 06:03:53;;;;;;;7.03;4.40;;;;;;;;;;4925326;29;20024;-86
2021/09/13 06:06:19;;;;;;;10.73;4.90;;;;;;;;;;4919621;29;20517;-81
2021/09/13 06:08:44;;;;;;;9.90;5.90;;;;;;;;;;4907741;29;20252;-83
2021/09/13 06:11:09;;;;;;;15.80;8.93;;;;;;;;;;4928229;29;20043;-81
2021/09/13 06:13:34;;;;;;;12.83;5.20;;;;;;;;;;4926770;29;20808;-84
2021/09/13 06:16:00;;;;;;;8.23;4.95;;;;;;;;;;4923500;29;20272;-84
2021/09/13 06:18:25;;;;;;;9.45;4.75;;;;;;;;;;4922367;29;20032;-81
2021/09/13 06:20:51;;;;;;;9.23;4.50;;;;;;;;;;4926379;29;20107;-82
2021/09/13 06:23:16;;;;;;;8.88;4.13;;;;;;;;;;4928922;29;20436;-82
2021/09/13 06:25:41;;;;;;;9.03;4.73;;;;;;;;;;4928134;29;20086;-83
2021/09/13 06:28:07;;;;;;;5.97;4.28;;;;;;;;;;4928867;29;20029;-83
2021/09/13 06:30:32;;;;;;;7.50;4.70;;;;;;;;;;4921033;29;20075;-84
2021/09/13 06:32:58;;;;;;;8.05;4.47;;;;;;;;;;4918938;29;20031;-84
2021/09/13 06:35:23;;;;;;;7.55;4.18;;;;;;;;;;4924775;29;20023;-84
2021/09/13 06:37:49;;;;;;;11.00;5.10;;;;;;;;;;4925646;29;20131;-84
2021/09/13 06:40:14;;;;;;;9.25;4.55;;;;;;;;;;4924700;29;20027;-87
2021/09/13 06:42:39;;;;;;;7.95;4.50;;;;;;;;;;4921976;29;21137;-85
2021/09/13 06:45:17;;;;;;;6.75;4.07;;;;;;;;;;4928627;29;20119;-84
2021/09/13 06:47:46;;;;;;;7.22;4.50;;;;;;;;;;4917968;29;20428;-91
2021/09/13 06:50:22;;;;;;;7.63;4.07;;;;;;;;;;4924139;29;20032;-86
2021/09/13 06:52:51;;;;;;;5.15;3.55;;;;;;;;;;4922242;29;20012;-86
2021/09/13 06:55:19;;;;;;;6.13;4.32;;;;;;;;;;4920816;29;20023;-87
2021/09/13 06:57:44;;;;;;;8.20;4.82;;;;;;;;;;4920839;29;20440;-88
2021/09/13 07:00:16;;;;;;;10.35;4.53;;;;;;;;;;4925476;29;20087;-86
2021/09/13 07:02:43;;;;;;;8.70;4.50;;;;;;;;;;4926751;29;20012;-86
2021/09/13 07:05:09;;;;;;;8.15;5.45;;;;;;;;;;4918351;29;20051;-87
2021/09/13 07:07:35;;;;;;;8.88;5.60;;;;;;;;;;4922805;29;20437;-85
2021/09/13 07:10:05;;;;;;;8.43;5.07;;;;;;;;;;4925954;29;20027;-82
2021/09/13 07:12:33;;;;;;;6.63;4.78;;;;;;;;;;4903508;29;20024;-88
2021/09/13 07:14:59;;;;;;;7.43;4.95;;;;;;;;;;4924200;29;20083;-86
2021/09/13 07:17:24;;;;;;;6.55;4.40;;;;;;;;;;4918101;29;20035;-87
2021/09/13 07:19:51;;;;;;;9.23;5.03;;;;;;;;;;4921831;29;20254;-86
2021/09/13 07:22:17;;;;;;;9.57;4.65;;;;;;;;;;4906982;29;20366;-86
2021/09/13 07:24:43;;;;;;;8.52;4.22;;;;;;;;;;4924421;29;20116;-86
2021/09/13 07:27:09;;;;;;;8.13;5.03;;;;;;;;;;4916356;29;20027;-87
2021/09/13 07:29:34;;;;;;;9.98;4.75;;;;;;;;;;4923982;29;20126;-85
2021/09/13 07:32:00;;;;;;;8.17;5.13;;;;;;;;;;4925738;29;20019;-85
2021/09/13 07:34:26;;;;;;;9.38;4.38;;;;;;;;;;4924762;29;20026;-85
2021/09/13 07:36:51;;;;;;;5.20;4.03;;;;;;;;;;4925412;29;20059;-81
2021/09/13 07:39:16;;;;;;;8.57;4.83;;;;;;;;;;4923267;29;20023;-80
2021/09/13 07:41:42;;;;;;;7.63;4.32;;;;;;;;;;4922331;29;20509;-80
2021/09/13 07:44:07;;;;;;;8.97;4.07;;;;;;;;;;4922520;29;20087;-81
2021/09/13 07:46:32;;;;;;;10.30;4.93;;;;;;;;;;4923235;29;20032;-81
2021/09/13 07:48:58;;;;;;;9.40;4.47;;;;;;;;;;4910857;29;20335;-81
2021/09/13 07:51:23;;;;;;;7.70;4.15;;;;;;;;;;4923781;29;20034;-81
2021/09/13 07:53:49;;;;;;;5.38;3.47;;;;;;;;;;4924907;29;20066;-84
2021/09/13 07:56:22;;;;;;;5.60;3.77;;;;;;;;;;4910515;29;20019;-81
2021/09/13 07:58:48;;;;;;;6.07;3.92;;;;;;;;;;4919570;29;20323;-83
2021/09/13 08:01:13;;;;;;;6.18;3.88;;;;;;;;;;4923825;29;20047;-83
2021/09/13 08:03:39;;;;;;;5.97;3.67;;;;;;;;;;4905093;29;20030;-83
2021/09/13 08:06:06;;;;;;;6.22;3.60;;;;;;;;;;4919856;29;20054;-82
2021/09/13 08:08:32;;;;;;;5.85;3.28;;;;;;;;;;4920314;29;20028;-80
2021/09/13 08:10:57;;;;;;;6.03;4.10;;;;;;;;;;4914731;29;20024;-83
2021/09/13 08:13:22;;;;;;;4.83;3.70;;;;;;;;;;4901985;29;20024;-82
2021/09/13 08:15:48;;;;;;;8.03;3.47;;;;;;;;;;4919212;29;20031;-82
2021/09/13 08:18:13;;;;;;;8.57;3.85;;;;;;;;;;4919326;29;20024;-82
2021/09/13 08:20:45;;;;;;;7.50;3.63;;;;;;;;;;4926904;29;20027;-83
2021/09/13 08:23:12;;;;;;;7.50;3.80;;;;;;;;;;4921710;29;20034;-85
2021/09/13 08:25:38;;;;;;;5.70;3.08;;;;;;;;;;4921654;29;20412;-85
2021/09/13 08:28:03;;;;;;;5.15;3.53;;;;;;;;;;4919859;29;20099;-83
2021/09/13 08:30:29;;;;;;;7.97;3.38;;;;;;;;;;4919049;29;20047;-81
2021/09/13 08:32:54;;;;;;;7.43;3.87;;;;;;;;;;4912814;29;20023;-82
2021/09/13 08:35:20;;;;;;;5.72;3.17;;;;;;;;;;4916112;29;20351;-82
2021/09/13 08:37:45;;;;;;;6.32;3.17;;;;;;;;;;4913367;29;20025;-80
2021/09/13 08:40:11;;;;;;;11.25;4.60;;;;;;;;;;4914353;29;20041;-81
2021/09/13 08:42:43;;;;;;;6.18;3.60;;;;;;;;;;4915442;29;20020;-81
2021/09/13 08:45:09;;;;;;;7.32;3.60;;;;;;;;;;4922049;29;20031;-81
2021/09/13 08:47:47;;;;;;;7.70;3.42;;;;;;;;;;4917625;29;20099;-82
2021/09/13 08:50:27;;;;;;;6.03;3.13;;;;;;;;;;4923448;29;20558;-83
2021/09/13 08:52:52;;;;;;;5.65;3.20;;;;;;;;;;4927390;29;20391;-84
2021/09/13 08:55:18;;;;;;;7.13;3.90;;;;;;;;;;4923350;29;20024;-86
2021/09/13 08:57:43;;;;;;;4.90;3.15;;;;;;;;;;4925141;29;20027;-85
2021/09/13 09:00:09;;;;;;;6.95;3.40;;;;;;;;;;4924765;29;20507;-84
2021/09/13 09:02:34;;;;;;;5.07;3.33;;;;;;;;;;4923253;29;20497;-86
2021/09/13 09:05:01;;;;;;;5.57;3.40;;;;;;;;;;4921151;29;20135;-85
2021/09/13 09:07:28;;;;;;;5.72;3.30;;;;;;;;;;4920060;29;20110;-84
2021/09/13 09:10:09;;;;;;;6.20;3.25;;;;;;;;;;4920109;29;20411;-85
2021/09/13 09:12:54;;;;;;;6.72;3.53;;;;;;;;;;4920849;29;20101;-85
2021/09/13 09:15:19;;;;;;;4.55;3.63;;;;;;;;;;4917683;29;20094;-85
2021/09/13 09:17:51;;;;;;;6.25;3.63;;;;;;;;;;4920676;29;20035;-85
2021/09/13 09:20:17;;;;;;;6.45;3.80;;;;;;;;;;4923712;29;20420;-87
2021/09/13 09:22:42;;;;;;;4.97;3.13;;;;;;;;;;4921655;29;20062;-89
2021/09/13 09:25:08;;;;;;;6.25;3.40;;;;;;;;;;4922728;29;20630;-89
2021/09/13 09:27:54;;;;;;;5.38;3.78;;;;;;;;;;4918820;29;20514;-84
2021/09/13 09:30:19;;;;;;;5.30;3.33;;;;;;;;;;4932083;29;20393;-87
2021/09/13 09:32:59;;;;;;;3.78;3.00;;;;;;;;;;4923828;29;20039;-85
2021/09/13 09:35:25;;;;;;;4.20;2.90;;;;;;;;;;4920064;29;20436;-91
2021/09/13 09:37:50;;;;;;;6.40;3.47;;;;;;;;;;4922752;29;20114;-90
2021/09/13 09:40:26;;;;;;;4.53;2.67;;;;;;;;;;4927252;29;20088;-90
2021/09/13 09:42:53;;;;;;;5.45;2.80;;;;;;;;;;4923273;29;20016;-90
2021/09/13 09:45:18;;;;;;;6.43;2.88;;;;;;;;;;4913425;29;20034;-89
2021/09/13 09:47:44;;;;;;;4.13;3.47;;;;;;;;;;4920017;29;20479;-90
2021/09/13 09:50:09;;;;;;;4.25;2.50;;;;;;;;;;4927076;29;20107;-91
2021/09/13 09:52:39;;;;;;;3.92;2.78;;;;;;;;;;4921704;29;20075;-92
2021/09/13 09:55:10;;;;;;;3.00;2.70;;;;;;;;;;4917872;29;20549;-92
2021/09/13 09:57:35;;;;;;;4.10;2.78;;;;;;;;;;4931719;29;20143;-91
2021/09/13 10:00:16;;;;;;;3.90;3.22;;;;;;;;;;4930556;29;20703;-90
2021/09/13 10:02:42;;;;;;;4.97;3.53;;;;;;;;;;4928287;29;20904;-89
2021/09/13 10:05:07;;;;;;;3.60;2.70;;;;;;;;;;4910238;29;20039;-89
2021/09/13 10:07:33;;;;;;;4.15;3.30;;;;;;;;;;4919103;29;20453;-90
2021/09/13 10:09:58;;;;;;;4.43;3.03;;;;;;;;;;4928185;29;20024;-92
2021/09/13 10:12:24;;;;;;;3.42;2.50;;;;;;;;;;4927475;29;20020;-91
2021/09/13 10:14:54;;;;;;;3.45;3.10;;;;;;;;;;4924855;29;20067;-91
2021/09/13 10:17:19;;;;;;;4.40;3.25;;;;;;;;;;4934465;29;20052;-91
2021/09/13 10:19:45;;;;;;;3.80;3.40;;;;;;;;;;4924040;29;20020;-91
2021/09/13 10:22:13;;;;;;;3.65;2.88;;;;;;;;;;4926457;29;20026;-90
2021/09/13 10:24:39;;;;;;;4.07;2.80;;;;;;;;;;4922765;29;21450;-87
2021/09/13 10:27:08;;;;;;;7.22;3.78;;;;;;;;;;4926233;29;20616;-89
2021/09/13 10:29:36;;;;;;;4.15;3.03;;;;;;;;;;4926614;29;20548;-91
2021/09/13 10:32:03;;;;;;;3.28;2.97;;;;;;;;;;4929604;29;20447;-87
2021/09/13 10:34:33;;;;;;;3.40;2.67;;;;;;;;;;4903571;29;20403;-91
2021/09/13 10:37:00;;;;;;;2.92;2.63;;;;;;;;;;4926360;29;20379;-88
2021/09/13 10:39:45;;;;;;;3.13;2.83;;;;;;;;;;4924573;29;20786;-86
2021/09/13 10:42:25;;;;;;;3.65;2.72;;;;;;;;;;4922387;29;20063;-86
2021/09/13 10:45:01;;;;;;;3.05;2.55;;;;;;;;;;4924470;29;20055;-84
2021/09/13 10:47:28;;;;;;;4.45;3.33;;;;;;;;;;4919797;29;20024;-83
2021/09/13 10:50:10;;;;;;;3.47;2.90;;;;;;;;;;4925775;29;20379;-81
2021/09/13 10:52:36;;;;;;;4.75;2.65;;;;;;;;;;4921713;29;20397;-83
2021/09/13 10:55:07;;;;;;;5.43;3.63;;;;;;;;;;4923965;29;20020;-83
2021/09/13 10:57:51;;;;;;;4.15;2.95;;;;;;;;;;4919373;29;20114;-83
2021/09/13 11:00:36;;;;;;;3.28;2.88;;;;;;;;;;4921108;29;20327;-83
2021/09/13 11:03:20;;;;;;;5.03;3.03;;;;;;;;;;4919620;29;20055;-81
2021/09/13 11:06:13;;;;;;;4.10;2.70;;;;;;;;;;4920544;29;20032;-83
2021/09/13 11:08:51;;;;;;;4.07;3.10;;;;;;;;;;4891855;29;20392;-80
2021/09/13 11:11:18;;;;;;;3.85;2.88;;;;;;;;;;4915925;29;20020;-84
2021/09/13 11:13:44;;;;;;;3.90;2.90;;;;;;;;;;4917217;29;20642;-84
2021/09/13 11:16:10;;;;;;;5.20;3.53;;;;;;;;;;4917340;29;20446;-84
2021/09/13 11:18:41;;;;;;;4.18;3.35;;;;;;;;;;4923872;29;20028;-84
2021/09/13 11:21:21;;;;;;;5.45;3.30;;;;;;;;;;4931127;29;20391;-82
2021/09/13 11:23:52;;;;;;;4.82;2.92;;;;;;;;;;4922305;29;20375;-80
2021/09/13 11:26:19;;;;;;;8.32;4.00;;;;;;;;;;4914517;29;20428;-82
2021/09/13 11:28:51;;;;;;;6.07;3.50;;;;;;;;;;4917082;29;20112;-85
2021/09/13 11:31:43;;;;;;;5.00;3.60;;;;;;;;;;4930572;29;20431;-81
2021/09/13 11:34:14;;;;;;;3.90;3.30;;;;;;;;;;4919851;29;20407;-82
2021/09/13 11:36:49;;;;;;;6.53;3.53;;;;;;;;;;4924789;29;20372;-81
2021/09/13 11:39:14;;;;;;;4.47;3.55;;;;;;;;;;4923023;29;20493;-81
2021/09/13 11:41:40;;;;;;;6.57;4.15;;;;;;;;;;4923752;29;20051;-80
2021/09/13 11:44:06;;;;;;;4.18;2.83;;;;;;;;;;4917660;29;20111;-84
2021/09/13 11:46:33;;;;;;;6.50;3.65;;;;;;;;;;4916667;29;20394;-83
2021/09/13 11:49:18;;;;;;;5.00;3.55;;;;;;;;;;4922684;29;20371;-86
2021/09/13 11:52:02;;;;;;;5.95;3.95;;;;;;;;;;4925391;29;20035;-88
2021/09/13 11:54:28;;;;;;;5.97;3.75;;;;;;;;;;4925813;29;20044;-88
2021/09/13 11:56:53;;;;;;;5.40;3.22;;;;;;;;;;4925642;29;20065;-87
2021/09/13 11:59:21;;;;;;;3.78;2.88;;;;;;;;;;4922503;29;20183;-89
2021/09/13 12:02:06;;;;;;;6.00;3.13;;;;;;;;;;4907679;29;20114;-85
2021/09/13 12:04:52;;;;;;;5.38;3.30;;;;;;;;;;4905499;29;20454;-84
2021/09/13 12:07:38;;;;;;;5.88;3.35;;;;;;;;;;4898620;29;20390;-86
2021/09/13 12:10:26;;;;;;;4.40;3.25;;;;;;;;;;4907390;29;20127;-88
2021/09/13 12:13:19;;;;;;;3.55;3.25;;;;;;;;;;4911135;29;20031;-87
2021/09/13 12:16:08;;;;;;;5.13;3.28;;;;;;;;;;4907977;29;20036;-85
2021/09/13 12:18:54;;;;;;;;;;;;;;;;;;4908016;29;20040;-85
2021/09/13 12:21:39;;;;;;;6.53;3.97;;;;;;;;;;4909678;29;20117;-85
2021/09/13 12:24:24;;;;;;;5.35;3.28;;;;;;;;;;4901221;29;20028;-87
2021/09/13 12:27:13;;;;;;;4.07;3.33;;;;;;;;;;4905897;29;20088;-86
2021/09/13 12:30:14;;;;;;;4.88;3.25;;;;;;;;;;4904405;29;20111;-83
2021/09/13 12:33:00;;;;;;;3.72;3.33;;;;;;;;;;4905349;29;20031;-82
2021/09/13 12:35:47;;;;;;;5.88;3.22;;;;;;;;;;4906416;29;20027;-82
2021/09/13 12:38:39;;;;;;;3.75;2.95;;;;;;;;;;4908068;29;20430;-87
2021/09/13 12:41:38;;;;;;;4.57;3.30;;;;;;;;;;4906321;29;20043;-80
2021/09/13 12:44:25;;;;;;;4.90;3.47;;;;;;;;;;4906580;29;20106;-79
2021/09/13 12:47:11;;;;;;;3.67;2.80;;;;;;;;;;4915360;29;20100;-79
2021/09/13 12:49:56;;;;;;;4.72;3.10;;;;;;;;;;4910268;29;20046;-80
2021/09/13 12:52:45;;;;;;;5.70;3.47;;;;;;;;;;4907500;29;20582;-81
2021/09/13 12:55:32;;;;;;;;;;;;;;;;;;4904507;29;20060;-80
2021/09/13 12:58:34;;;;;;;3.33;2.80;;;;;;;;;;4908259;29;19963;-82
2021/09/13 13:01:32;;;;;;;4.43;2.75;;;;;;;;;;4903626;29;20032;-83
2021/09/13 13:04:18;;;;;;;4.20;3.15;;;;;;;;;;4903570;29;20442;-84
2021/09/13 13:07:08;;;;;;;4.30;3.30;;;;;;;;;;4908750;29;20111;-84
2021/09/13 13:09:53;;;;;;;5.20;2.83;;;;;;;;;;4911123;29;20062;-84
2021/09/13 13:12:38;;;;;;;4.63;3.55;;;;;;;;;;4912973;29;20039;-84
2021/09/13 13:15:24;;;;;;;3.97;3.13;;;;;;;;;;4912218;29;20079;-83
2021/09/13 13:18:27;;;;;;;3.53;3.05;;;;;;;;;;4916379;29;20039;-82
2021/09/13 13:21:13;;;;;;;4.40;3.08;;;;;;;;;;4912323;29;20027;-83
2021/09/13 13:23:58;;;;;;;4.85;3.72;;;;;;;;;;4914476;29;20561;-82
2021/09/13 13:26:44;;;;;;;6.22;3.90;;;;;;;;;;4907149;29;20028;-83
2021/09/13 13:29:29;;;;;;;3.72;3.30;;;;;;;;;;4910686;29;20032;-83
2021/09/13 13:32:14;;;;;;;5.07;3.17;;;;;;;;;;4910225;29;20031;-83
2021/09/13 13:35:00;;;;;;;4.25;3.40;;;;;;;;;;4907295;29;20095;-85
2021/09/13 13:37:45;;;;;;;5.43;3.22;;;;;;;;;;4915277;29;20146;-84
2021/09/13 13:40:31;;;;;;;5.10;3.22;;;;;;;;;;4921604;29;20281;-87
2021/09/13 13:43:16;;;;;;;5.10;3.50;;;;;;;;;;4917139;29;20028;-88
2021/09/13 13:46:01;;;;;;;4.15;2.80;;;;;;;;;;4913616;29;20047;-91
2021/09/13 13:48:47;;;;;;;3.30;3.00;;;;;;;;;;4918642;29;20023;-92
2021/09/13 13:51:32;;;;;;;3.67;3.20;;;;;;;;;;4914469;29;20119;-84
2021/09/13 13:54:17;;;;;;;5.22;3.03;;;;;;;;;;4909433;29;20020;-85
2021/09/13 13:57:03;;;;;;;4.30;3.38;;;;;;;;;;4907989;29;20040;-87
2021/09/13 13:59:48;;;;;;;4.18;3.50;;;;;;;;;;4908038;29;20023;-85
2021/09/13 14:02:34;;;;;;;4.57;3.28;;;;;;;;;;4904924;29;20031;-85
2021/09/13 14:05:19;;;;;;;4.60;3.35;;;;;;;;;;4896344;29;20070;-82
2021/09/13 14:08:04;;;;;;;4.32;3.40;;;;;;;;;;4912346;29;20046;-82
2021/09/13 14:10:49;;;;;;;4.00;3.60;;;;;;;;;;4905167;29;20172;-84
2021/09/13 14:13:35;;;;;;;4.20;2.83;;;;;;;;;;4909534;29;20143;-84
2021/09/13 14:16:20;;;;;;;4.93;3.42;;;;;;;;;;4908234;29;20435;-88
2021/09/13 14:19:06;;;;;;;4.78;3.33;;;;;;;;;;4904704;29;20043;-85
2021/09/13 14:21:51;;;;;;;5.15;3.72;;;;;;;;;;4911121;29;20067;-87
2021/09/13 14:24:37;;;;;;;5.28;3.80;;;;;;;;;;4905982;29;20074;-85
2021/09/13 14:27:22;;;;;;;4.63;3.22;;;;;;;;;;4910397;29;20086;-88
2021/09/13 14:30:08;;;;;;;4.45;3.20;;;;;;;;;;4915120;29;20028;-83
2021/09/13 14:32:53;;;;;;;3.83;3.20;;;;;;;;;;4918335;29;20027;-88
2021/09/13 14:35:38;;;;;;;5.15;3.38;;;;;;;;;;4908155;29;20020;-86
2021/09/13 14:38:24;;;;;;;3.40;3.10;;;;;;;;;;4913710;29;20027;-87
2021/09/13 14:41:09;;;;;;;4.63;3.35;;;;;;;;;;4918494;29;20054;-87
2021/09/13 14:43:55;;;;;;;3.58;3.05;;;;;;;;;;4912648;29;20034;-88
2021/09/13 14:46:40;;;;;;;5.25;3.53;;;;;;;;;;4906756;29;20019;-87
2021/09/13 14:49:28;;;;;;;5.22;3.75;;;;;;;;;;4912354;29;20031;-83
2021/09/13 14:52:14;;;;;;;4.65;3.60;;;;;;;;;;4910546;29;20124;-84
2021/09/13 14:54:59;;;;;;;5.03;3.33;;;;;;;;;;4914693;29;20106;-86
2021/09/13 14:57:44;;;;;;;4.18;3.20;;;;;;;;;;4909724;29;20044;-84
2021/09/13 15:00:30;;;;;;;6.78;3.70;;;;;;;;;;4899689;29;20055;-86
2021/09/13 15:03:15;;;;;;;4.40;3.30;;;;;;;;;;4905447;29;20027;-88
2021/09/13 15:06:00;;;;;;;6.30;2.90;;;;;;;;;;4909429;29;20426;-86
2021/09/13 15:08:45;;;;;;;5.45;3.67;;;;;;;;;;4907296;29;20150;-85